createdAt,value
2024-04-24T00:02:33.235Z,3.05
2024-04-24T00:05:38.089Z,2.97
2024-04-24T00:08:42.823Z,2.90
2024-04-24T00:11:47.454Z,2.92
2024-04-24T00:14:55.035Z,3.27
2024-04-24T00:17:59.653Z,2.90
2024-04-24T00:21:04.403Z,3.10
2024-04-24T00:24:09.283Z,2.88
2024-04-24T00:27:14.311Z,3.35
2024-04-24T00:30:21.875Z,3.20
2024-04-24T00:33:26.530Z,3.60
2024-04-24T00:36:31.664Z,3.13
2024-04-24T00:39:36.341Z,3.03
2024-04-24T00:42:40.887Z,3.67
2024-04-24T00:45:48.358Z,3.10
2024-04-24T00:48:54.134Z,2.90
2024-04-24T00:51:58.907Z,3.88
2024-04-24T00:55:03.445Z,3.03
2024-04-24T00:58:08.851Z,2.95
2024-04-24T01:01:18.415Z,3.00
2024-04-24T01:04:23.253Z,3.05
2024-04-24T01:07:28.222Z,3.30
2024-04-24T01:10:33.216Z,3.08
2024-04-24T01:13:38.153Z,3.05
2024-04-24T01:16:48.419Z,3.00
2024-04-24T01:19:56.157Z,2.67
2024-04-24T01:23:32.117Z,3.47
2024-04-24T01:26:47.880Z,2.90
2024-04-24T01:29:53.189Z,2.72
2024-04-24T01:32:58.192Z,2.77
2024-04-24T01:36:03.167Z,2.85
2024-04-24T01:39:08.193Z,3.42
2024-04-24T01:42:15.660Z,3.22
2024-04-24T01:45:20.739Z,3.03
2024-04-24T01:48:25.519Z,2.70
2024-04-24T01:51:30.228Z,2.60
2024-04-24T01:54:34.900Z,2.65
2024-04-24T01:57:42.264Z,2.55
2024-04-24T02:00:46.884Z,3.00
2024-04-24T02:03:51.995Z,2.53
2024-04-24T02:06:56.590Z,2.70
2024-04-24T02:10:01.445Z,3.28
2024-04-24T02:13:08.648Z,2.90
2024-04-24T02:16:13.347Z,2.72
2024-04-24T02:19:17.860Z,2.80
2024-04-24T02:22:22.773Z,2.80
2024-04-24T02:25:39.147Z,2.70
2024-04-24T02:28:46.320Z,2.88
2024-04-24T02:31:51.019Z,2.75
2024-04-24T02:34:55.734Z,3.10
2024-04-24T02:38:00.509Z,3.00
2024-04-24T02:41:05.063Z,3.30
2024-04-24T02:44:12.461Z,3.13
2024-04-24T02:47:17.536Z,3.80
2024-04-24T02:50:22.263Z,3.40
2024-04-24T02:53:27.087Z,4.40
2024-04-24T02:56:31.784Z,4.35
2024-04-24T02:59:39.195Z,5.43
2024-04-24T03:02:43.800Z,5.55
2024-04-24T03:05:48.604Z,5.70
2024-04-24T03:08:55.406Z,6.55
2024-04-24T03:12:00.245Z,5.95
2024-04-24T03:15:08.655Z,6.25
2024-04-24T03:18:13.311Z,6.68
2024-04-24T03:21:23.353Z,6.03
2024-04-24T03:24:28.215Z,6.38
2024-04-24T03:27:32.901Z,6.25
2024-04-24T03:30:40.101Z,5.50
2024-04-24T03:33:44.855Z,5.82
2024-04-24T03:36:50.154Z,5.07
2024-04-24T03:39:54.839Z,4.68
2024-04-24T03:42:59.587Z,5.28
2024-04-24T03:46:07.135Z,4.20
2024-04-24T03:49:11.836Z,4.32
2024-04-24T03:52:16.520Z,3.70
2024-04-24T03:55:21.493Z,3.80
2024-04-24T03:58:26.086Z,3.80
2024-04-24T04:01:34.539Z,3.60
2024-04-24T04:04:39.088Z,3.42
2024-04-24T04:07:44.007Z,3.20
2024-04-24T04:10:49.242Z,3.22
2024-04-24T04:13:55.162Z,3.30
2024-04-24T04:17:02.693Z,2.90
2024-04-24T04:20:08.325Z,3.63
2024-04-24T04:23:13.740Z,3.30
2024-04-24T04:26:18.514Z,3.38
2024-04-24T04:29:23.174Z,2.85
2024-04-24T04:32:30.671Z,3.28
2024-04-24T04:35:35.267Z,2.75
2024-04-24T04:38:39.915Z,3.27
2024-04-24T04:41:44.401Z,3.13
2024-04-24T04:44:49.121Z,3.28
2024-04-24T04:47:56.398Z,3.20
2024-04-24T04:51:03.974Z,3.50
2024-04-24T04:54:08.757Z,3.07
2024-04-24T04:57:13.397Z,3.10
2024-04-24T05:00:18.350Z,3.33
2024-04-24T05:03:25.778Z,3.00
2024-04-24T05:06:30.723Z,3.55
2024-04-24T05:09:36.659Z,3.40
2024-04-24T05:12:41.478Z,2.83
2024-04-24T05:15:46.000Z,3.88
2024-04-24T05:18:54.457Z,3.70
2024-04-24T05:21:59.195Z,3.33
2024-04-24T05:25:03.756Z,3.08
2024-04-24T05:28:26.198Z,3.17
2024-04-24T05:31:30.808Z,3.28
2024-04-24T05:34:38.389Z,3.03
2024-04-24T05:37:43.057Z,3.10
2024-04-24T05:40:47.757Z,3.42
2024-04-24T05:43:52.314Z,3.22
2024-04-24T05:46:58.523Z,3.85
2024-04-24T05:50:06.138Z,4.10
2024-04-24T05:53:11.034Z,4.17
2024-04-24T05:56:15.802Z,4.60
2024-04-24T05:59:20.962Z,4.05
2024-04-24T06:02:25.645Z,5.15
2024-04-24T06:05:32.982Z,5.20
2024-04-24T06:08:37.660Z,5.57
2024-04-24T06:11:42.619Z,4.78
2024-04-24T06:14:47.440Z,5.47
2024-04-24T06:17:54.886Z,5.05
2024-04-24T06:21:04.125Z,5.70
2024-04-24T06:24:12.521Z,6.40
2024-04-24T06:27:17.697Z,5.32
2024-04-24T06:30:22.398Z,5.10
2024-04-24T06:33:27.167Z,5.05
2024-04-24T06:36:34.522Z,5.23
2024-04-24T06:39:39.455Z,5.33
2024-04-24T06:42:44.004Z,5.75
2024-04-24T06:45:49.051Z,5.07
2024-04-24T06:48:53.826Z,5.20
2024-04-24T06:52:01.029Z,5.17
2024-04-24T06:55:05.748Z,5.00
2024-04-24T06:58:10.238Z,5.50
2024-04-24T07:01:15.114Z,4.95
2024-04-24T07:04:19.866Z,4.63
2024-04-24T07:07:27.365Z,5.00
2024-04-24T07:10:32.068Z,5.67
2024-04-24T07:13:36.814Z,5.40
2024-04-24T07:16:42.615Z,4.55
2024-04-24T07:19:48.105Z,4.43
2024-04-24T07:22:55.952Z,4.70
2024-04-24T07:26:01.052Z,4.47
2024-04-24T07:29:06.171Z,4.07
2024-04-24T07:32:11.137Z,4.15
2024-04-24T07:35:16.574Z,4.50
2024-04-24T07:38:24.288Z,4.50
2024-04-24T07:41:28.996Z,3.83
2024-04-24T07:44:33.728Z,4.30
2024-04-24T07:47:42.823Z,4.15
2024-04-24T07:50:48.511Z,3.85
2024-04-24T07:53:55.907Z,4.23
2024-04-24T07:57:00.751Z,4.25
2024-04-24T08:00:05.668Z,4.60
2024-04-24T08:03:10.641Z,3.90
2024-04-24T08:06:15.198Z,4.50
2024-04-24T08:09:22.707Z,4.40
2024-04-24T08:12:27.549Z,4.28
2024-04-24T08:15:34.413Z,4.43
2024-04-24T08:18:39.797Z,4.47
2024-04-24T08:21:44.535Z,3.87
2024-04-24T08:24:52.098Z,4.25
2024-04-24T08:27:56.634Z,3.80
2024-04-24T08:31:09.943Z,3.70
2024-04-24T08:34:16.329Z,3.90
2024-04-24T08:37:20.996Z,3.60
2024-04-24T08:40:28.474Z,4.60
2024-04-24T08:43:33.248Z,4.32
2024-04-24T08:46:38.043Z,4.78
2024-04-24T08:49:45.738Z,4.57
2024-04-24T08:52:56.563Z,4.07
2024-04-24T08:56:07.971Z,4.32
2024-04-24T08:59:19.325Z,3.95
2024-04-24T09:02:28.673Z,4.50
2024-04-24T09:05:37.209Z,4.50
2024-04-24T09:08:43.838Z,4.40
2024-04-24T09:11:52.289Z,4.63
2024-04-24T09:14:57.115Z,4.75
2024-04-24T09:18:01.996Z,5.78
2024-04-24T09:21:08.168Z,5.70
2024-04-24T09:24:14.398Z,5.67
2024-04-24T09:27:23.478Z,6.20
2024-04-24T09:30:31.432Z,5.70
2024-04-24T09:33:36.267Z,6.00
2024-04-24T09:36:43.367Z,6.10
2024-04-24T09:39:48.398Z,6.60
2024-04-24T09:42:56.057Z,6.85
2024-04-24T09:46:01.236Z,5.60
2024-04-24T09:49:07.636Z,6.43
2024-04-24T09:52:17.878Z,7.40
2024-04-24T09:55:29.300Z,7.57
2024-04-24T09:58:39.029Z,7.07
2024-04-24T10:01:48.196Z,7.07
2024-04-24T10:04:59.068Z,7.47
2024-04-24T10:08:08.936Z,6.97
2024-04-24T10:11:17.330Z,7.23
2024-04-24T10:14:27.052Z,8.90
2024-04-24T10:17:33.539Z,7.80
2024-04-24T10:20:40.727Z,7.40
2024-04-24T10:23:45.697Z,8.60
2024-04-24T10:26:52.947Z,7.07
2024-04-24T10:30:00.480Z,6.80
2024-04-24T10:33:08.001Z,7.93
2024-04-24T10:36:12.928Z,6.43
2024-04-24T10:39:17.993Z,7.47
2024-04-24T10:42:22.800Z,6.73
2024-04-24T10:45:30.824Z,6.90
2024-04-24T10:49:00.922Z,6.22
2024-04-24T10:52:06.294Z,5.50
2024-04-24T10:55:12.789Z,5.50
2024-04-24T10:58:24.579Z,5.70
2024-04-24T11:01:42.489Z,5.72
2024-04-24T11:04:55.509Z,6.10
2024-04-24T11:08:02.109Z,4.80
2024-04-24T11:11:08.780Z,6.03
2024-04-24T11:14:15.295Z,5.70
2024-04-24T11:17:27.598Z,6.10
2024-04-24T11:20:37.769Z,5.93
2024-04-24T11:23:49.313Z,5.63
2024-04-24T11:26:53.955Z,5.90
2024-04-24T11:29:58.921Z,5.40
2024-04-24T11:33:06.665Z,5.43
2024-04-24T11:36:11.441Z,5.63
2024-04-24T11:39:20.084Z,4.70
2024-04-24T11:42:26.075Z,5.40
2024-04-24T11:45:30.838Z,5.17
2024-04-24T11:48:46.749Z,4.82
2024-04-24T11:51:55.088Z,4.55
2024-04-24T11:54:59.580Z,4.47
2024-04-24T11:58:11.813Z,4.60
2024-04-24T12:01:19.123Z,3.83
2024-04-24T12:04:27.458Z,4.88
2024-04-24T12:07:33.092Z,4.30
2024-04-24T12:10:38.185Z,4.20
2024-04-24T12:13:44.125Z,5.40
2024-04-24T12:16:49.330Z,5.10
2024-04-24T12:19:56.949Z,5.28
2024-04-24T12:23:03.145Z,4.95
2024-04-24T12:26:08.787Z,5.13
2024-04-24T12:29:15.632Z,5.30
2024-04-24T12:32:21.507Z,5.50
2024-04-24T12:35:29.281Z,4.80
2024-04-24T12:38:34.014Z,5.40
2024-04-24T12:41:38.836Z,4.20
2024-04-24T12:44:45.064Z,4.67
2024-04-24T12:47:50.009Z,3.60
2024-04-24T12:50:57.915Z,3.80
2024-04-24T12:54:03.099Z,2.77
2024-04-24T12:57:09.859Z,2.40
2024-04-24T13:00:18.378Z,2.30
2024-04-24T13:03:26.523Z,2.22
2024-04-24T13:06:34.751Z,2.50
2024-04-24T13:09:39.469Z,2.43
2024-04-24T13:12:46.548Z,2.70
2024-04-24T13:15:51.721Z,2.67
2024-04-24T13:18:56.851Z,2.70
2024-04-24T13:22:05.246Z,3.45
2024-04-24T13:25:10.453Z,2.73
2024-04-24T13:28:14.981Z,2.60
2024-04-24T13:31:19.749Z,3.67
2024-04-24T13:34:24.674Z,2.45
2024-04-24T13:37:31.831Z,3.55
2024-04-24T13:40:36.545Z,4.00
2024-04-24T13:43:41.483Z,3.60
2024-04-24T13:46:46.156Z,4.10
2024-04-24T13:49:51.110Z,3.90
2024-04-24T13:52:58.557Z,3.38
2024-04-24T13:56:03.950Z,4.13
2024-04-24T13:59:08.538Z,4.22
2024-04-24T14:02:13.345Z,3.83
2024-04-24T14:05:18.125Z,3.92
2024-04-24T14:08:27.819Z,3.60
2024-04-24T14:11:34.608Z,5.17
2024-04-24T14:14:39.771Z,4.43
2024-04-24T14:17:44.866Z,4.57
2024-04-24T14:20:49.937Z,4.90
2024-04-24T14:23:59.142Z,4.32
2024-04-24T14:27:03.731Z,3.70
2024-04-24T14:30:09.689Z,4.82
2024-04-24T14:33:14.325Z,5.00
2024-04-24T14:36:20.456Z,4.43
2024-04-24T14:39:30.141Z,3.88
2024-04-24T14:42:34.884Z,4.13
2024-04-24T14:45:39.597Z,4.30
2024-04-24T14:48:44.491Z,4.27
2024-04-24T14:51:49.961Z,4.03
2024-04-24T14:54:57.469Z,3.70
2024-04-24T14:58:02.252Z,3.70
2024-04-24T15:01:08.184Z,3.30
2024-04-24T15:04:14.544Z,3.63
2024-04-24T15:07:19.473Z,3.20
2024-04-24T15:10:27.394Z,2.97
2024-04-24T15:13:31.956Z,5.65
2024-04-24T15:16:36.668Z,5.03
2024-04-24T15:19:42.424Z,5.33
2024-04-24T15:22:48.002Z,5.00
2024-04-24T15:25:55.898Z,3.92
2024-04-24T15:29:00.763Z,3.65
2024-04-24T15:32:05.804Z,4.15
2024-04-24T15:35:10.925Z,3.90
2024-04-24T15:38:17.078Z,5.53
2024-04-24T15:41:24.350Z,4.90
2024-04-24T15:44:29.090Z,4.25
2024-04-24T15:47:34.125Z,4.35
2024-04-24T15:50:39.387Z,4.30
2024-04-24T15:53:44.200Z,4.13
2024-04-24T15:56:51.652Z,3.47
2024-04-24T15:59:56.889Z,3.90
2024-04-24T16:03:01.751Z,4.35
2024-04-24T16:06:06.933Z,4.23
2024-04-24T16:09:11.583Z,4.50
2024-04-24T16:12:19.047Z,4.47
2024-04-24T16:15:23.603Z,4.70
2024-04-24T16:18:36.238Z,4.47
2024-04-24T16:21:47.418Z,3.93
2024-04-24T16:24:52.279Z,3.80
2024-04-24T16:27:59.703Z,4.63
2024-04-24T16:31:04.237Z,4.57
2024-04-24T16:34:09.189Z,4.67
2024-04-24T16:37:13.880Z,4.95
2024-04-24T16:40:18.564Z,4.78
2024-04-24T16:43:25.894Z,4.70
2024-04-24T16:46:30.580Z,5.00
2024-04-24T16:49:36.860Z,5.57
2024-04-24T16:52:41.557Z,4.90
2024-04-24T16:55:48.451Z,4.85
2024-04-24T16:58:57.155Z,5.20
2024-04-24T17:02:02.289Z,5.30
2024-04-24T17:05:11.130Z,5.57
2024-04-24T17:08:16.463Z,5.25
2024-04-24T17:11:21.351Z,5.38
2024-04-24T17:14:30.825Z,5.88
2024-04-24T17:17:36.483Z,5.20
2024-04-24T17:20:42.063Z,4.90
2024-04-24T17:23:47.249Z,4.78
2024-04-24T17:26:52.990Z,5.00
2024-04-24T17:30:00.348Z,5.10
2024-04-24T17:33:04.990Z,4.77
2024-04-24T17:36:12.580Z,4.60
2024-04-24T17:39:17.555Z,5.60
2024-04-24T17:42:22.114Z,6.00
2024-04-24T17:45:30.377Z,6.57
2024-04-24T17:48:35.266Z,6.83
2024-04-24T17:51:40.361Z,5.90
2024-04-24T17:54:44.972Z,4.65
2024-04-24T17:57:49.628Z,4.88
2024-04-24T18:00:57.087Z,5.18
2024-04-24T18:04:01.807Z,6.70
2024-04-24T18:07:06.400Z,6.10
2024-04-24T18:10:11.396Z,4.93
2024-04-24T18:13:16.824Z,5.63
2024-04-24T18:16:23.948Z,5.88
2024-04-24T18:19:28.860Z,5.10
2024-04-24T18:22:33.433Z,5.27
2024-04-24T18:25:38.604Z,5.10
2024-04-24T18:28:43.256Z,5.47
2024-04-24T18:31:50.872Z,4.75
2024-04-24T18:34:55.497Z,5.80
2024-04-24T18:38:00.604Z,5.10
2024-04-24T18:41:05.312Z,5.82
2024-04-24T18:44:10.496Z,5.55
2024-04-24T18:47:19.624Z,5.47
2024-04-24T18:50:25.930Z,5.23
2024-04-24T18:53:30.609Z,5.77
2024-04-24T18:56:35.498Z,5.78
2024-04-24T18:59:40.731Z,5.50
2024-04-24T19:02:49.734Z,5.18
2024-04-24T19:05:54.936Z,5.83
2024-04-24T19:09:00.162Z,5.13
2024-04-24T19:12:06.148Z,5.88
2024-04-24T19:15:11.935Z,6.13
2024-04-24T19:18:19.285Z,6.80
2024-04-24T19:21:23.931Z,6.93
2024-04-24T19:24:28.501Z,6.57
2024-04-24T19:27:40.564Z,6.53
2024-04-24T19:30:46.457Z,6.75
2024-04-24T19:33:53.942Z,7.03
2024-04-24T19:36:58.965Z,6.63
2024-04-24T19:40:04.662Z,7.87
2024-04-24T19:43:09.516Z,7.18
2024-04-24T19:46:14.075Z,6.93
2024-04-24T19:49:21.974Z,7.05
2024-04-24T19:52:26.574Z,7.23
2024-04-24T19:55:36.113Z,7.53
2024-04-24T19:58:41.143Z,7.90
2024-04-24T20:01:49.371Z,7.63
2024-04-24T20:04:56.812Z,8.15
2024-04-24T20:08:01.784Z,8.13
2024-04-24T20:11:08.462Z,8.17
2024-04-24T20:14:14.339Z,7.57
2024-04-24T20:17:20.557Z,7.78
2024-04-24T20:20:30.602Z,7.65
2024-04-24T20:23:36.141Z,7.57
2024-04-24T20:26:41.511Z,8.10
2024-04-24T20:29:46.373Z,8.05
2024-04-24T20:32:51.984Z,7.40
2024-04-24T20:36:01.827Z,7.57
2024-04-24T20:39:10.354Z,8.73
2024-04-24T20:42:15.599Z,8.05
2024-04-24T20:45:21.076Z,8.57
2024-04-24T20:48:26.580Z,8.50
2024-04-24T20:51:34.259Z,9.02
2024-04-24T20:54:41.178Z,9.00
2024-04-24T20:57:46.230Z,9.20
2024-04-24T21:00:51.921Z,9.85
2024-04-24T21:03:57.409Z,9.57
2024-04-24T21:07:17.502Z,9.82
2024-04-24T21:10:22.864Z,9.27
2024-04-24T21:13:28.558Z,9.50
2024-04-24T21:16:33.587Z,9.93
2024-04-24T21:19:38.374Z,10.07
2024-04-24T21:22:48.137Z,10.10
2024-04-24T21:25:53.104Z,10.27
2024-04-24T21:28:57.833Z,10.50
2024-04-24T21:32:02.775Z,9.75
2024-04-24T21:35:07.934Z,10.77
2024-04-24T21:38:15.461Z,10.50
2024-04-24T21:41:21.987Z,9.52
2024-04-24T21:44:27.363Z,10.70
2024-04-24T21:47:32.241Z,10.30
2024-04-24T21:50:37.360Z,11.17
2024-04-24T21:53:45.365Z,11.35
2024-04-24T21:56:50.301Z,10.88
2024-04-24T21:59:55.103Z,10.90
2024-04-24T22:03:00.150Z,9.80
2024-04-24T22:06:05.187Z,10.48
2024-04-24T22:09:12.526Z,10.43
2024-04-24T22:12:17.494Z,10.88
2024-04-24T22:15:22.818Z,10.43
2024-04-24T22:18:29.352Z,9.93
2024-04-24T22:21:53.970Z,10.54
2024-04-24T22:25:01.948Z,11.98
2024-04-24T22:28:07.462Z,10.30
2024-04-24T22:31:14.472Z,10.50
2024-04-24T22:34:19.882Z,10.97
2024-04-24T22:37:24.879Z,10.80
2024-04-24T22:40:33.766Z,10.65
2024-04-24T22:43:39.706Z,10.15
2024-04-24T22:46:44.713Z,11.40
2024-04-24T22:49:49.818Z,10.83
2024-04-24T22:52:54.855Z,11.25
2024-04-24T22:56:02.554Z,12.07
2024-04-24T22:59:07.710Z,11.75
2024-04-24T23:02:13.076Z,12.05
2024-04-24T23:05:18.069Z,10.80
2024-04-24T23:08:24.955Z,11.50
2024-04-24T23:11:33.424Z,12.15
2024-04-24T23:14:38.602Z,11.13
2024-04-24T23:17:45.324Z,11.85
2024-04-24T23:20:50.575Z,10.80
2024-04-24T23:23:55.504Z,11.45
2024-04-24T23:27:02.714Z,11.32
2024-04-24T23:30:08.468Z,11.32
2024-04-24T23:33:13.074Z,12.27
2024-04-24T23:36:17.805Z,12.43
2024-04-24T23:39:22.530Z,11.40
2024-04-24T23:42:29.908Z,11.90
2024-04-24T23:45:35.514Z,12.52
2024-04-24T23:48:40.350Z,11.82
2024-04-24T23:55:07.589Z,12.38
2024-04-24T23:58:15.656Z,11.70
